createdAt,value
2018-12-26T00:01:57.992Z,7.70
2018-12-26T00:06:59.801Z,10.37
2018-12-26T00:12:01.830Z,8.63
2018-12-26T00:17:03.867Z,10.10
2018-12-26T00:22:05.653Z,9.73
2018-12-26T00:27:07.412Z,11.83
2018-12-26T00:32:09.079Z,12.70
2018-12-26T00:37:10.802Z,12.80
2018-12-26T00:42:13.049Z,10.67
2018-12-26T00:47:14.725Z,11.13
2018-12-26T00:52:16.513Z,13.60
2018-12-26T00:57:18.286Z,9.83
2018-12-26T01:02:20.010Z,9.50
2018-12-26T01:07:21.938Z,10.87
2018-12-26T01:12:23.743Z,11.17
2018-12-26T01:17:25.496Z,10.33
2018-12-26T01:22:27.491Z,8.97
2018-12-26T01:27:29.492Z,9.57
2018-12-26T01:32:31.201Z,7.60
2018-12-26T01:37:32.889Z,9.30
2018-12-26T01:42:35.145Z,9.90
2018-12-26T01:47:37.151Z,12.73
2018-12-26T01:52:38.860Z,10.80
2018-12-26T01:57:40.637Z,8.50
2018-12-26T02:02:42.401Z,10.73
2018-12-26T02:07:44.149Z,10.07
2018-12-26T02:12:46.670Z,10.80
2018-12-26T02:17:48.908Z,10.50
2018-12-26T02:22:51.285Z,9.43
2018-12-26T02:27:53.047Z,9.73
2018-12-26T02:32:55.169Z,9.30
2018-12-26T02:37:57.252Z,7.13
2018-12-26T02:42:59.144Z,7.23
2018-12-26T02:48:00.876Z,7.30
2018-12-26T02:53:02.500Z,6.57
2018-12-26T02:58:04.708Z,6.33
2018-12-26T03:03:06.326Z,6.80
2018-12-26T03:08:08.057Z,6.77
2018-12-26T03:13:10.499Z,6.07
2018-12-26T03:18:12.495Z,7.20
2018-12-26T03:23:14.254Z,9.23
2018-12-26T03:28:16.250Z,8.00
2018-12-26T03:33:17.924Z,7.30
2018-12-26T03:38:20.169Z,8.70
2018-12-26T03:43:21.889Z,8.20
2018-12-26T03:48:23.878Z,10.87
2018-12-26T03:53:25.655Z,13.10
2018-12-26T03:58:27.401Z,14.93
2018-12-26T04:03:29.465Z,12.60
2018-12-26T04:08:31.224Z,12.57
2018-12-26T04:13:33.637Z,11.10
2018-12-26T04:18:35.393Z,12.60
2018-12-26T04:23:37.136Z,13.07
2018-12-26T04:28:38.896Z,11.50
2018-12-26T04:33:40.618Z,14.33
2018-12-26T04:38:42.320Z,13.70
2018-12-26T04:43:44.251Z,16.90
2018-12-26T04:48:45.966Z,20.07
2018-12-26T04:53:47.684Z,18.13
2018-12-26T04:58:49.454Z,19.43
2018-12-26T05:03:51.536Z,18.00
2018-12-26T05:08:53.292Z,18.10
2018-12-26T05:13:55.370Z,17.63
2018-12-26T05:18:58.234Z,20.07
2018-12-26T05:24:00.601Z,18.23
2018-12-26T05:29:02.346Z,18.90
2018-12-26T05:34:04.312Z,17.30
2018-12-26T05:39:06.251Z,18.97
2018-12-26T05:44:07.923Z,18.30
2018-12-26T05:49:10.420Z,14.13
2018-12-26T05:54:12.136Z,16.20
2018-12-26T05:59:13.897Z,15.23
2018-12-26T06:04:15.650Z,15.83
2018-12-26T06:09:17.426Z,14.17
2018-12-26T06:14:19.223Z,13.47
2018-12-26T06:19:21.217Z,15.97
2018-12-26T06:24:22.975Z,14.33
2018-12-26T06:29:24.730Z,13.40
2018-12-26T06:34:26.466Z,14.13
2018-12-26T06:39:28.197Z,14.40
2018-12-26T06:44:29.803Z,16.53
2018-12-26T06:49:31.513Z,16.07
2018-12-26T06:54:33.213Z,16.17
2018-12-26T06:59:34.968Z,15.27
2018-12-26T07:04:36.986Z,17.10
2018-12-26T07:09:39.056Z,17.80
2018-12-26T07:14:40.993Z,17.03
2018-12-26T07:19:42.994Z,16.60
2018-12-26T07:24:44.736Z,16.33
2018-12-26T07:29:46.767Z,14.87
2018-12-26T07:34:48.607Z,15.20
2018-12-26T07:39:50.550Z,13.53
2018-12-26T07:44:52.234Z,15.00
2018-12-26T07:49:54.171Z,16.00
2018-12-26T07:54:55.925Z,18.70
2018-12-26T07:59:57.883Z,20.23
2018-12-26T08:04:59.629Z,20.73
2018-12-26T08:10:01.640Z,20.37
2018-12-26T08:15:10.529Z,18.37
2018-12-26T08:20:07.821Z,18.77
2018-12-26T08:25:09.440Z,20.87
2018-12-26T08:30:11.119Z,21.30
2018-12-26T08:35:13.027Z,20.07
2018-12-26T08:40:14.767Z,19.73
2018-12-26T08:45:16.392Z,17.80
2018-12-26T08:50:19.605Z,20.93
2018-12-26T08:55:21.346Z,16.60
2018-12-26T09:00:23.587Z,20.33
2018-12-26T09:05:25.341Z,16.50
2018-12-26T09:10:28.132Z,20.60
2018-12-26T09:15:29.994Z,16.10
2018-12-26T09:20:32.127Z,17.00
2018-12-26T09:25:33.920Z,15.27
2018-12-26T09:30:36.111Z,15.73
2018-12-26T09:35:38.062Z,14.97
2018-12-26T09:40:39.778Z,15.10
2018-12-26T09:45:41.403Z,12.50
2018-12-26T09:50:43.089Z,12.20
2018-12-26T09:55:44.801Z,14.00
2018-12-26T10:00:48.061Z,11.90
2018-12-26T10:05:49.980Z,12.33
2018-12-26T10:10:51.878Z,11.43
2018-12-26T10:15:53.932Z,10.97
2018-12-26T10:20:56.766Z,9.50
2018-12-26T10:25:58.603Z,10.93
2018-12-26T10:31:00.387Z,10.80
2018-12-26T10:36:02.037Z,10.30
2018-12-26T10:41:03.757Z,9.23
2018-12-26T10:46:05.408Z,9.20
2018-12-26T10:51:07.312Z,10.97
2018-12-26T10:56:09.050Z,10.57
2018-12-26T11:01:10.835Z,13.00
2018-12-26T11:06:12.840Z,12.00
2018-12-26T11:11:14.831Z,13.70
2018-12-26T11:16:16.603Z,13.23
2018-12-26T11:21:18.339Z,11.63
2018-12-26T11:26:20.087Z,12.43
2018-12-26T11:31:21.848Z,12.23
2018-12-26T11:36:23.611Z,12.40
2018-12-26T11:41:25.536Z,14.03
2018-12-26T11:46:27.168Z,13.10
2018-12-26T11:51:29.000Z,12.33
2018-12-26T11:56:30.751Z,16.40
2018-12-26T12:01:32.819Z,15.80
2018-12-26T12:06:34.573Z,14.90
2018-12-26T12:11:36.347Z,15.37
2018-12-26T12:16:38.412Z,18.13
2018-12-26T12:21:40.165Z,19.47
2018-12-26T12:26:42.472Z,21.00
2018-12-26T12:31:44.730Z,19.87
2018-12-26T12:36:46.963Z,19.83
2018-12-26T12:41:51.227Z,15.30
2018-12-26T12:46:53.686Z,22.13
2018-12-26T12:51:57.221Z,25.10
2018-12-26T12:56:59.893Z,25.37
2018-12-26T13:02:03.658Z,25.43
2018-12-26T13:07:05.404Z,27.10
2018-12-26T13:12:07.423Z,26.80
2018-12-26T13:17:09.468Z,24.43
2018-12-26T13:22:11.498Z,25.47
2018-12-26T13:27:13.240Z,20.70
2018-12-26T13:32:14.991Z,19.90
2018-12-26T13:37:16.704Z,20.10
2018-12-26T13:42:18.487Z,18.27
2018-12-26T13:47:22.353Z,15.17
2018-12-26T13:52:24.266Z,14.17
2018-12-26T13:57:25.877Z,11.90
2018-12-26T14:02:27.841Z,13.00
2018-12-26T14:07:29.463Z,12.63
2018-12-26T14:12:31.210Z,9.57
2018-12-26T14:17:32.966Z,9.77
2018-12-26T14:22:34.589Z,10.60
2018-12-26T14:27:36.281Z,10.17
2018-12-26T14:32:38.747Z,9.50
2018-12-26T14:37:40.669Z,8.83
2018-12-26T14:42:42.351Z,10.33
2018-12-26T14:47:47.653Z,6.90
2018-12-26T14:52:52.162Z,8.00
2018-12-26T14:57:54.068Z,11.00
2018-12-26T15:02:56.048Z,9.57
2018-12-26T15:07:58.130Z,9.30
2018-12-26T15:13:04.631Z,9.73
2018-12-26T15:18:07.098Z,10.67
2018-12-26T15:23:08.704Z,10.83
2018-12-26T15:28:10.911Z,11.37
2018-12-26T15:33:12.630Z,11.00
2018-12-26T15:38:15.201Z,12.73
2018-12-26T15:43:17.368Z,14.67
2018-12-26T15:48:18.981Z,15.40
2018-12-26T15:53:20.912Z,15.10
2018-12-26T15:58:22.873Z,14.97
2018-12-26T16:03:26.338Z,15.80
2018-12-26T16:08:28.184Z,18.07
2018-12-26T16:13:29.933Z,19.50
2018-12-26T16:18:34.011Z,19.87
2018-12-26T16:23:36.132Z,17.13
2018-12-26T16:28:37.918Z,17.50
2018-12-26T16:33:40.017Z,19.00
2018-12-26T16:38:41.676Z,19.80
2018-12-26T16:43:43.381Z,20.93
2018-12-26T16:48:44.992Z,17.80
2018-12-26T16:53:46.911Z,19.90
2018-12-26T16:58:52.802Z,20.00
2018-12-26T17:03:54.651Z,18.90
2018-12-26T17:08:56.278Z,16.13
2018-12-26T17:13:57.962Z,18.50
2018-12-26T17:18:59.656Z,20.07
2018-12-26T17:24:01.554Z,18.63
2018-12-26T17:29:03.798Z,17.07
2018-12-26T17:34:05.772Z,17.50
2018-12-26T17:39:07.439Z,16.20
2018-12-26T17:44:09.231Z,15.47
2018-12-26T17:49:10.861Z,13.53
2018-12-26T17:54:16.062Z,11.30
2018-12-26T17:59:24.279Z,12.30
2018-12-26T18:04:26.286Z,11.90
2018-12-26T18:09:28.055Z,15.20
2018-12-26T18:14:30.389Z,14.63
2018-12-26T18:19:32.217Z,15.10
2018-12-26T18:24:35.242Z,16.67
2018-12-26T18:29:38.733Z,16.30
2018-12-26T18:34:40.625Z,17.50
2018-12-26T18:39:42.295Z,17.00
2018-12-26T18:44:44.867Z,16.97
2018-12-26T18:49:46.485Z,14.70
2018-12-26T18:54:48.921Z,16.23
2018-12-26T18:59:50.680Z,19.47
2018-12-26T19:04:52.448Z,22.60
2018-12-26T19:09:54.203Z,18.30
2018-12-26T19:14:56.288Z,18.03
2018-12-26T19:19:58.311Z,21.00
2018-12-26T19:25:00.316Z,18.33
2018-12-26T19:30:02.080Z,16.57
2018-12-26T19:35:04.040Z,17.47
2018-12-26T19:40:07.100Z,19.67
2018-12-26T19:45:10.894Z,19.20
2018-12-26T19:50:12.556Z,18.40
2018-12-26T19:55:14.281Z,22.27
2018-12-26T20:00:15.906Z,21.10
2018-12-26T20:05:17.573Z,18.37
2018-12-26T20:10:19.194Z,16.30
2018-12-26T20:15:20.864Z,16.30
2018-12-26T20:20:22.746Z,15.60
2018-12-26T20:25:24.738Z,17.43
2018-12-26T20:30:26.739Z,14.77
2018-12-26T20:35:28.508Z,16.30
2018-12-26T20:40:30.158Z,11.77
2018-12-26T20:45:32.142Z,13.40
2018-12-26T20:50:35.028Z,10.03
2018-12-26T20:55:36.976Z,17.57
2018-12-26T21:00:38.665Z,18.00
2018-12-26T21:05:40.388Z,17.73
2018-12-26T21:10:42.086Z,20.87
2018-12-26T21:15:43.742Z,17.07
2018-12-26T21:20:45.708Z,19.43
2018-12-26T21:25:47.412Z,24.90
2018-12-26T21:30:49.026Z,23.23
2018-12-26T21:35:50.698Z,20.27
2018-12-26T21:40:52.366Z,22.30
2018-12-26T21:45:54.155Z,25.27
2018-12-26T21:50:55.913Z,20.10
2018-12-26T21:56:01.091Z,25.87
2018-12-26T22:01:02.958Z,20.57
2018-12-26T22:06:05.198Z,18.10
2018-12-26T22:11:07.304Z,15.70
2018-12-26T22:16:09.073Z,20.13
2018-12-26T22:21:11.123Z,20.10
2018-12-26T22:26:13.210Z,23.20
2018-12-26T22:31:14.959Z,19.00
2018-12-26T22:36:16.951Z,22.30
2018-12-26T22:41:18.676Z,31.20
2018-12-26T22:46:23.422Z,23.77
2018-12-26T22:51:25.096Z,27.97
2018-12-26T22:56:26.807Z,21.87
2018-12-26T23:01:28.427Z,31.73
2018-12-26T23:06:30.134Z,31.10
2018-12-26T23:11:31.751Z,30.93
2018-12-26T23:16:33.429Z,29.50
2018-12-26T23:21:35.196Z,25.50
2018-12-26T23:26:37.193Z,27.07
2018-12-26T23:31:39.268Z,30.57
2018-12-26T23:36:41.195Z,29.03
2018-12-26T23:41:42.900Z,29.10
2018-12-26T23:46:44.587Z,30.83
2018-12-26T23:51:46.493Z,20.57
2018-12-26T23:56:48.208Z,30.67
